RYR140 EBCI-LFLL
Flight info
| Callsign | RYR140 |
|---|---|
| Flight time | 1h 0m |
| Altitude | 19000 |
| Route | CIV Y50 IDOKO/N0388F170 Y50 MATIX/N0398F190 Y50 REM B3 VATRI G40 TRO B373 MOU A3 FEDZI |
| Aircraft | B738/M-SDE2E3FGHIRWXY/LB1 |
Departure
| Time | 2026-04-30 20:25 |
|---|---|
| Airport | Brussels South Charleroi Airport (EBCI) |
Arrival
| Time | 2026-04-30 21:25 |
|---|---|
| Airport | Lyon Saint-Exupéry Airport (LFLL) |
| Time | Latitude | Longitude | Altitude | Speed | Heading |
|---|---|---|---|---|---|
| 2026-04-30 20:23 | 50.45938 | 4.44509 | 599 ft | 41 kts | 244° |
| 2026-04-30 20:23 | 50.45802 | 4.44212 | 597 ft | 32 kts | 232° |
| 2026-04-30 20:23 | 50.45685 | 4.43991 | 593 ft | 18 kts | 213° |
| 2026-04-30 20:23 | 50.45638 | 4.44094 | 593 ft | 15 kts | 67° |
| 2026-04-30 20:24 | 50.45641 | 4.44102 | 593 ft | 0 kts | 66° |
| 2026-04-30 20:24 | 50.45705 | 4.44323 | 595 ft | 57 kts | 65° |
| 2026-04-30 20:24 | 50.45969 | 4.45229 | 589 ft | 124 kts | 65° |
| 2026-04-30 20:24 | 50.46336 | 4.46568 | 649 ft | 168 kts | 67° |
| 2026-04-30 20:25 | 50.47439 | 4.50141 | 1993 ft | 179 kts | 68° |
| 2026-04-30 20:25 | 50.48276 | 4.51608 | 2883 ft | 193 kts | 42° |
| 2026-04-30 20:26 | 50.50361 | 4.54736 | 3580 ft | 229 kts | 56° |
| 2026-04-30 20:26 | 50.52519 | 4.58760 | 4488 ft | 256 kts | 53° |
| 2026-04-30 20:26 | 50.54002 | 4.60467 | 5028 ft | 278 kts | 23° |
| 2026-04-30 20:27 | 50.57851 | 4.59968 | 6642 ft | 291 kts | 329° |
| 2026-04-30 20:27 | 50.60003 | 4.54795 | 8081 ft | 296 kts | 275° |
| 2026-04-30 20:28 | 50.59936 | 4.48306 | 9549 ft | 301 kts | 263° |
| 2026-04-30 20:28 | 50.59607 | 4.41594 | 10696 ft | 320 kts | 264° |
| 2026-04-30 20:29 | 50.59286 | 4.34102 | 11036 ft | 364 kts | 265° |
| 2026-04-30 20:30 | 50.58819 | 4.21397 | 12025 ft | 402 kts | 265° |
| 2026-04-30 20:30 | 50.58348 | 4.08951 | 15404 ft | 361 kts | 264° |
| 2026-04-30 20:31 | 50.57925 | 3.96776 | 16559 ft | 394 kts | 264° |
| 2026-04-30 20:32 | 50.53594 | 3.85990 | 17030 ft | 418 kts | 203° |
| 2026-04-30 20:32 | 50.47971 | 3.84738 | 18049 ft | 412 kts | 171° |
| 2026-04-30 20:33 | 50.45122 | 3.85292 | 18540 ft | 415 kts | 171° |
| 2026-04-30 20:33 | 50.39315 | 3.86414 | 19201 ft | 423 kts | 171° |
| 2026-04-30 20:33 | 50.36353 | 3.86930 | 19234 ft | 430 kts | 172° |
| 2026-04-30 20:34 | 50.30421 | 3.87924 | 19271 ft | 427 kts | 172° |
| 2026-04-30 20:34 | 50.24503 | 3.88922 | 19277 ft | 429 kts | 172° |
| 2026-04-30 20:35 | 50.21529 | 3.89425 | 19285 ft | 430 kts | 172° |
| 2026-04-30 20:35 | 50.18559 | 3.89926 | 19294 ft | 430 kts | 172° |
| 2026-04-30 20:35 | 50.12611 | 3.90928 | 19292 ft | 430 kts | 172° |
| 2026-04-30 20:36 | 50.09636 | 3.91427 | 19275 ft | 430 kts | 172° |
| 2026-04-30 20:36 | 50.06660 | 3.91930 | 19256 ft | 431 kts | 172° |
| 2026-04-30 20:36 | 50.00749 | 3.92932 | 19238 ft | 430 kts | 172° |
| 2026-04-30 20:37 | 49.97774 | 3.93437 | 19225 ft | 429 kts | 172° |
| 2026-04-30 20:37 | 49.94769 | 3.93945 | 19220 ft | 429 kts | 172° |
| 2026-04-30 20:37 | 49.91851 | 3.94438 | 19221 ft | 429 kts | 172° |
| 2026-04-30 20:37 | 49.88888 | 3.94938 | 19220 ft | 428 kts | 172° |
| 2026-04-30 20:38 | 49.85917 | 3.95438 | 19258 ft | 428 kts | 172° |
| 2026-04-30 20:38 | 49.82953 | 3.95937 | 19278 ft | 428 kts | 172° |
| 2026-04-30 20:38 | 49.79992 | 3.96434 | 19267 ft | 430 kts | 172° |
| 2026-04-30 20:39 | 49.74008 | 3.97442 | 19232 ft | 432 kts | 172° |
| 2026-04-30 20:39 | 49.71017 | 3.97946 | 19219 ft | 433 kts | 172° |
| 2026-04-30 20:39 | 49.68036 | 3.98448 | 19223 ft | 432 kts | 172° |
| 2026-04-30 20:40 | 49.62059 | 3.99452 | 19263 ft | 431 kts | 172° |
| 2026-04-30 20:40 | 49.59078 | 3.99951 | 19268 ft | 431 kts | 172° |
| 2026-04-30 20:40 | 49.56093 | 4.00451 | 19266 ft | 431 kts | 172° |
| 2026-04-30 20:41 | 49.50160 | 4.01437 | 19292 ft | 431 kts | 172° |
| 2026-04-30 20:41 | 49.47176 | 4.01932 | 19297 ft | 431 kts | 172° |
| 2026-04-30 20:41 | 49.44176 | 4.02429 | 19265 ft | 433 kts | 172° |
| 2026-04-30 20:41 | 49.41183 | 4.02924 | 19221 ft | 434 kts | 172° |
| 2026-04-30 20:42 | 49.38183 | 4.03420 | 19211 ft | 433 kts | 172° |
| 2026-04-30 20:42 | 49.35182 | 4.03900 | 19212 ft | 433 kts | 172° |
| 2026-04-30 20:42 | 49.29181 | 4.04694 | 19209 ft | 433 kts | 175° |
| 2026-04-30 20:43 | 49.26168 | 4.04774 | 19205 ft | 433 kts | 178° |
| 2026-04-30 20:43 | 49.23163 | 4.04767 | 19255 ft | 432 kts | 178° |
| 2026-04-30 20:43 | 49.20150 | 4.04771 | 19263 ft | 432 kts | 177° |
| 2026-04-30 20:44 | 49.14172 | 4.04882 | 19270 ft | 433 kts | 177° |
| 2026-04-30 20:44 | 49.11149 | 4.04960 | 19271 ft | 433 kts | 176° |
| 2026-04-30 20:44 | 49.05117 | 4.05125 | 19258 ft | 434 kts | 176° |
| 2026-04-30 20:45 | 48.99068 | 4.05286 | 19210 ft | 435 kts | 176° |
| 2026-04-30 20:45 | 48.96044 | 4.05365 | 19199 ft | 434 kts | 176° |
| 2026-04-30 20:45 | 48.93051 | 4.05443 | 19194 ft | 434 kts | 176° |
| 2026-04-30 20:46 | 48.84006 | 4.05678 | 19214 ft | 432 kts | 176° |
| 2026-04-30 20:46 | 48.81000 | 4.05756 | 19239 ft | 432 kts | 176° |
| 2026-04-30 20:47 | 48.74967 | 4.05887 | 19237 ft | 433 kts | 177° |
| 2026-04-30 20:47 | 48.71961 | 4.05935 | 19241 ft | 433 kts | 177° |
| 2026-04-30 20:48 | 48.65970 | 4.06030 | 19220 ft | 434 kts | 177° |
| 2026-04-30 20:48 | 48.62934 | 4.06081 | 19226 ft | 434 kts | 177° |
| 2026-04-30 20:48 | 48.59920 | 4.06133 | 19230 ft | 434 kts | 177° |
| 2026-04-30 20:48 | 48.56886 | 4.06162 | 19203 ft | 436 kts | 179° |
| 2026-04-30 20:49 | 48.53865 | 4.05684 | 19196 ft | 439 kts | 189° |
| 2026-04-30 20:49 | 48.50885 | 4.04688 | 19188 ft | 439 kts | 190° |
| 2026-04-30 20:49 | 48.47894 | 4.03665 | 19175 ft | 439 kts | 190° |
| 2026-04-30 20:50 | 48.41940 | 4.01687 | 19169 ft | 438 kts | 189° |
| 2026-04-30 20:50 | 48.38960 | 4.00724 | 19204 ft | 437 kts | 189° |
| 2026-04-30 20:50 | 48.35987 | 3.99772 | 19233 ft | 437 kts | 189° |
| 2026-04-30 20:50 | 48.33016 | 3.98824 | 19218 ft | 437 kts | 189° |
| 2026-04-30 20:51 | 48.30035 | 3.97874 | 19220 ft | 438 kts | 189° |
| 2026-04-30 20:51 | 48.24068 | 3.96011 | 19213 ft | 438 kts | 187° |
| 2026-04-30 20:51 | 48.21101 | 3.95297 | 19214 ft | 437 kts | 186° |
| 2026-04-30 20:52 | 48.18092 | 3.94674 | 19187 ft | 438 kts | 185° |
| 2026-04-30 20:52 | 48.15070 | 3.94066 | 19172 ft | 438 kts | 185° |
| 2026-04-30 20:52 | 48.09023 | 3.92799 | 19157 ft | 437 kts | 186° |
| 2026-04-30 20:53 | 48.06022 | 3.92147 | 19157 ft | 437 kts | 186° |
| 2026-04-30 20:53 | 48.03025 | 3.91495 | 19155 ft | 436 kts | 186° |
| 2026-04-30 20:53 | 47.99996 | 3.90835 | 19184 ft | 435 kts | 186° |
| 2026-04-30 20:54 | 47.94021 | 3.89530 | 19207 ft | 435 kts | 186° |
| 2026-04-30 20:54 | 47.91020 | 3.88876 | 19180 ft | 436 kts | 186° |
| 2026-04-30 20:54 | 47.88011 | 3.88221 | 19152 ft | 437 kts | 186° |
| 2026-04-30 20:55 | 47.81989 | 3.86913 | 19160 ft | 437 kts | 186° |
| 2026-04-30 20:55 | 47.78998 | 3.86262 | 19468 ft | 421 kts | 185° |
| 2026-04-30 20:55 | 47.76204 | 3.85675 | 19920 ft | 397 kts | 185° |
| 2026-04-30 20:56 | 47.70501 | 3.84463 | 19399 ft | 434 kts | 186° |
| 2026-04-30 20:56 | 47.67498 | 3.83810 | 19229 ft | 436 kts | 186° |
| 2026-04-30 20:56 | 47.61481 | 3.82493 | 19167 ft | 436 kts | 186° |
| 2026-04-30 20:57 | 47.58475 | 3.81844 | 19153 ft | 436 kts | 186° |
| 2026-04-30 20:57 | 47.55466 | 3.81198 | 19160 ft | 436 kts | 186° |
| 2026-04-30 20:57 | 47.52466 | 3.80555 | 19170 ft | 437 kts | 186° |
| 2026-04-30 20:58 | 47.46456 | 3.79268 | 19154 ft | 437 kts | 186° |
| 2026-04-30 20:58 | 47.43443 | 3.78621 | 19153 ft | 437 kts | 186° |
| 2026-04-30 20:58 | 47.40439 | 3.77975 | 19162 ft | 437 kts | 186° |
| 2026-04-30 20:58 | 47.37431 | 3.77327 | 19174 ft | 436 kts | 186° |
| 2026-04-30 20:59 | 47.31424 | 3.76035 | 19160 ft | 436 kts | 186° |
| 2026-04-30 20:59 | 47.28421 | 3.75390 | 19163 ft | 436 kts | 186° |
| 2026-04-30 21:00 | 47.22462 | 3.74113 | 19155 ft | 435 kts | 186° |
| 2026-04-30 21:00 | 47.16477 | 3.72832 | 19165 ft | 434 kts | 186° |
| 2026-04-30 21:01 | 47.10495 | 3.71554 | 19171 ft | 435 kts | 186° |
| 2026-04-30 21:01 | 47.07501 | 3.70915 | 19169 ft | 435 kts | 186° |
| 2026-04-30 21:01 | 47.01506 | 3.69636 | 19170 ft | 435 kts | 186° |
| 2026-04-30 21:02 | 46.98504 | 3.68995 | 19161 ft | 436 kts | 186° |
| 2026-04-30 21:02 | 46.95505 | 3.68359 | 19173 ft | 436 kts | 186° |
| 2026-04-30 21:02 | 46.93514 | 3.67938 | 19178 ft | 436 kts | 186° |
| 2026-04-30 21:02 | 46.90502 | 3.67307 | 19170 ft | 436 kts | 186° |
| 2026-04-30 21:03 | 46.87497 | 3.66687 | 19162 ft | 436 kts | 186° |
| 2026-04-30 21:03 | 46.84493 | 3.66067 | 19155 ft | 436 kts | 186° |
| 2026-04-30 21:03 | 46.81494 | 3.65445 | 19160 ft | 435 kts | 186° |
| 2026-04-30 21:03 | 46.77533 | 3.64624 | 19161 ft | 434 kts | 186° |
| 2026-04-30 21:04 | 46.75511 | 3.64207 | 19162 ft | 434 kts | 186° |
| 2026-04-30 21:04 | 46.72505 | 3.63837 | 19161 ft | 432 kts | 177° |
| 2026-04-30 21:04 | 46.66668 | 3.65270 | 19162 ft | 429 kts | 159° |
| 2026-04-30 21:05 | 46.63885 | 3.66823 | 19173 ft | 428 kts | 157° |
| 2026-04-30 21:05 | 46.61108 | 3.68401 | 19168 ft | 428 kts | 157° |
| 2026-04-30 21:05 | 46.58329 | 3.69956 | 19171 ft | 429 kts | 158° |
| 2026-04-30 21:05 | 46.55538 | 3.71492 | 19166 ft | 429 kts | 158° |
| 2026-04-30 21:06 | 46.52736 | 3.73016 | 19168 ft | 429 kts | 158° |
| 2026-04-30 21:06 | 46.49934 | 3.74534 | 19170 ft | 430 kts | 158° |
| 2026-04-30 21:06 | 46.47134 | 3.76051 | 19176 ft | 430 kts | 158° |
| 2026-04-30 21:06 | 46.44327 | 3.77582 | 19179 ft | 430 kts | 157° |
| 2026-04-30 21:07 | 46.41549 | 3.79186 | 19175 ft | 430 kts | 156° |
| 2026-04-30 21:07 | 46.38774 | 3.80824 | 19161 ft | 430 kts | 155° |
| 2026-04-30 21:07 | 46.36203 | 3.82978 | 19152 ft | 423 kts | 139° |
| 2026-04-30 21:07 | 46.34206 | 3.86020 | 18848 ft | 413 kts | 127° |
| 2026-04-30 21:08 | 46.32498 | 3.89312 | 18391 ft | 408 kts | 126° |
| 2026-04-30 21:08 | 46.30817 | 3.92587 | 17819 ft | 403 kts | 126° |
| 2026-04-30 21:08 | 46.29148 | 3.95819 | 17267 ft | 399 kts | 126° |
| 2026-04-30 21:08 | 46.27508 | 3.98963 | 16727 ft | 395 kts | 127° |
| 2026-04-30 21:09 | 46.25853 | 4.02110 | 16183 ft | 391 kts | 127° |
| 2026-04-30 21:09 | 46.24207 | 4.05216 | 15660 ft | 388 kts | 127° |
| 2026-04-30 21:09 | 46.22562 | 4.08309 | 15120 ft | 386 kts | 127° |
| 2026-04-30 21:09 | 46.20932 | 4.11365 | 14585 ft | 384 kts | 127° |
| 2026-04-30 21:10 | 46.19326 | 4.14371 | 14549 ft | 367 kts | 127° |
| 2026-04-30 21:10 | 46.17818 | 4.17188 | 14659 ft | 348 kts | 127° |
| 2026-04-30 21:10 | 46.16318 | 4.19990 | 13765 ft | 360 kts | 127° |
| 2026-04-30 21:10 | 46.14748 | 4.22921 | 12651 ft | 375 kts | 127° |
| 2026-04-30 21:11 | 46.13148 | 4.25905 | 11976 ft | 373 kts | 128° |
| 2026-04-30 21:11 | 46.11575 | 4.28834 | 11468 ft | 365 kts | 128° |
| 2026-04-30 21:11 | 46.10076 | 4.31622 | 11314 ft | 349 kts | 128° |
| 2026-04-30 21:11 | 46.08620 | 4.34326 | 11162 ft | 334 kts | 127° |
| 2026-04-30 21:12 | 46.07226 | 4.36913 | 11012 ft | 320 kts | 127° |
| 2026-04-30 21:12 | 46.05883 | 4.39401 | 10933 ft | 308 kts | 128° |
| 2026-04-30 21:12 | 46.04585 | 4.41804 | 10823 ft | 301 kts | 127° |
| 2026-04-30 21:12 | 46.03310 | 4.44166 | 10713 ft | 299 kts | 128° |
| 2026-04-30 21:13 | 46.02042 | 4.46512 | 10585 ft | 293 kts | 128° |
| 2026-04-30 21:13 | 46.00813 | 4.48787 | 10459 ft | 283 kts | 128° |
| 2026-04-30 21:13 | 45.99648 | 4.51012 | 10329 ft | 273 kts | 123° |
| 2026-04-30 21:13 | 45.98660 | 4.53277 | 10216 ft | 262 kts | 121° |
| 2026-04-30 21:14 | 45.97725 | 4.55507 | 9976 ft | 258 kts | 121° |
| 2026-04-30 21:14 | 45.96801 | 4.57695 | 9695 ft | 255 kts | 121° |
| 2026-04-30 21:14 | 45.96016 | 4.59955 | 9414 ft | 251 kts | 102° |
| 2026-04-30 21:14 | 45.95989 | 4.62450 | 9189 ft | 252 kts | 81° |
| 2026-04-30 21:15 | 45.96382 | 4.64916 | 8931 ft | 256 kts | 76° |
| 2026-04-30 21:15 | 45.96873 | 4.67422 | 8677 ft | 265 kts | 75° |
| 2026-04-30 21:15 | 45.97384 | 4.70005 | 8397 ft | 269 kts | 75° |
| 2026-04-30 21:15 | 45.97884 | 4.72577 | 8113 ft | 266 kts | 75° |
| 2026-04-30 21:16 | 45.98368 | 4.75116 | 7868 ft | 261 kts | 77° |
| 2026-04-30 21:16 | 45.98836 | 4.77613 | 7612 ft | 257 kts | 76° |
| 2026-04-30 21:16 | 45.99295 | 4.80081 | 7364 ft | 253 kts | 76° |
| 2026-04-30 21:16 | 45.99745 | 4.82511 | 7112 ft | 250 kts | 76° |
| 2026-04-30 21:17 | 46.00185 | 4.84887 | 6870 ft | 249 kts | 76° |
| 2026-04-30 21:17 | 46.00569 | 4.87371 | 6464 ft | 258 kts | 88° |
| 2026-04-30 21:17 | 46.00450 | 4.89918 | 6179 ft | 254 kts | 97° |
| 2026-04-30 21:17 | 46.00273 | 4.92423 | 5959 ft | 247 kts | 97° |
| 2026-04-30 21:18 | 46.00121 | 4.94809 | 5841 ft | 232 kts | 96° |
| 2026-04-30 21:18 | 45.99984 | 4.97033 | 5759 ft | 214 kts | 96° |
| 2026-04-30 21:18 | 45.99861 | 4.99087 | 5658 ft | 198 kts | 96° |
| 2026-04-30 21:18 | 45.99745 | 5.01044 | 5356 ft | 195 kts | 97° |
| 2026-04-30 21:19 | 45.99633 | 5.02950 | 5195 ft | 188 kts | 96° |
| 2026-04-30 21:19 | 45.99395 | 5.04779 | 5080 ft | 187 kts | 120° |
| 2026-04-30 21:19 | 45.98411 | 5.05945 | 5074 ft | 190 kts | 166° |
| 2026-04-30 21:19 | 45.97094 | 5.06235 | 4869 ft | 194 kts | 173° |
| 2026-04-30 21:20 | 45.95779 | 5.06465 | 4685 ft | 188 kts | 174° |
| 2026-04-30 21:20 | 45.94483 | 5.06641 | 4475 ft | 186 kts | 176° |
| 2026-04-30 21:20 | 45.93209 | 5.06794 | 4350 ft | 179 kts | 175° |
| 2026-04-30 21:20 | 45.91994 | 5.06941 | 4136 ft | 170 kts | 175° |
| 2026-04-30 21:21 | 45.90834 | 5.07082 | 3915 ft | 165 kts | 176° |
| 2026-04-30 21:21 | 45.89699 | 5.07219 | 3729 ft | 165 kts | 176° |
| 2026-04-30 21:21 | 45.87444 | 5.07493 | 3434 ft | 160 kts | 176° |
| 2026-04-30 21:22 | 45.86366 | 5.07624 | 3299 ft | 155 kts | 177° |
| 2026-04-30 21:22 | 45.83238 | 5.08011 | 3267 ft | 147 kts | 175° |
| 2026-04-30 21:23 | 45.82197 | 5.08134 | 3205 ft | 153 kts | 177° |
| 2026-04-30 21:23 | 45.81075 | 5.08252 | 2502 ft | 166 kts | 176° |
| 2026-04-30 21:23 | 45.78730 | 5.08639 | 1539 ft | 164 kts | 178° |
| 2026-04-30 21:24 | 45.77622 | 5.08692 | 1427 ft | 150 kts | 178° |
| 2026-04-30 21:24 | 45.76606 | 5.08813 | 1397 ft | 146 kts | 172° |
| 2026-04-30 21:24 | 45.75604 | 5.08962 | 1220 ft | 142 kts | 175° |
| 2026-04-30 21:24 | 45.74613 | 5.09058 | 995 ft | 142 kts | 174° |
| 2026-04-30 21:25 | 45.72678 | 5.09293 | 789 ft | 141 kts | 175° |
| 2026-04-30 21:25 | 45.71773 | 5.09397 | 792 ft | 89 kts | 175° |
| 2026-04-30 21:25 | 45.71429 | 5.09438 | 801 ft | 38 kts | 175° |
| 2026-04-30 21:26 | 45.71205 | 5.09460 | 804 ft | 8 kts | 178° |
| 2026-04-30 21:26 | 45.71146 | 5.09457 | 805 ft | 9 kts | 194° |
| 2026-04-30 21:27 | 45.71100 | 5.09296 | 804 ft | 10 kts | 263° |
| 2026-04-30 21:27 | 45.71093 | 5.09201 | 805 ft | 9 kts | 265° |
| 2026-04-30 21:27 | 45.71090 | 5.09149 | 805 ft | 0 kts | 265° |
| 2026-04-30 21:28 | 45.71086 | 5.09073 | 804 ft | 11 kts | 265° |
| 2026-04-30 21:28 | 45.71082 | 5.08993 | 804 ft | 8 kts | 265° |
| 2026-04-30 21:28 | 45.71108 | 5.08711 | 804 ft | 19 kts | 285° |
| 2026-04-30 21:29 | 45.71132 | 5.08611 | 803 ft | 5 kts | 300° |
| 2026-04-30 21:29 | 45.71168 | 5.08565 | 803 ft | 1 kts | 335° |
| 2026-04-30 21:30 | 45.71263 | 5.08542 | 802 ft | 9 kts | 353° |
| 2026-04-30 21:31 | 45.71463 | 5.08520 | 799 ft | 11 kts | 355° |
| 2026-04-30 21:31 | 45.71619 | 5.08501 | 798 ft | 11 kts | 354° |
| 2026-04-30 21:32 | 45.71676 | 5.08263 | 796 ft | 16 kts | 275° |
| 2026-04-30 21:32 | 45.71721 | 5.08126 | 796 ft | 16 kts | 341° |
| 2026-04-30 21:32 | 45.71774 | 5.08106 | 795 ft | 6 kts | 315° |
| 2026-04-30 21:32 | 45.71782 | 5.08094 | 795 ft | 0 kts | 313° |
| 2026-04-30 21:33 | 45.71796 | 5.08077 | 795 ft | 4 kts | 332° |
| 2026-04-30 21:33 | 45.71781 | 5.08089 | 795 ft | 5 kts | 221° |
| 2026-04-30 21:33 | 45.71785 | 5.08047 | 795 ft | 4 kts | 310° |
| 2026-04-30 21:34 | 45.71797 | 5.08034 | 794 ft | 1 kts | 326° |
| 2026-04-30 21:34 | 45.71804 | 5.08028 | 794 ft | 0 kts | 327° |